Time;durP1;ratioP1;P1;durP2;ratioP2;P2;SDS_P1;SDS_P2;PMS_P1;PMS_P2;Temp;Humidity;BMP_temperature;BMP_pressure;BME280_temperature;BME280_humidity;BME280_pressure;Samples;Min_cycle;Max_cycle;Signal;HPM_P1;HPM_P2
2023/01/15 00:00:25;;;;;;;12.55;6.07;;;;;;;;;;5034374;28;20025;-69
2023/01/15 00:02:52;;;;;;;13.82;6.63;;;;;;;;;;5065589;28;20030;-69
2023/01/15 00:05:18;;;;;;;10.90;6.07;;;;;;;;;;5034334;28;20025;-70
2023/01/15 00:07:44;;;;;;;13.77;6.30;;;;;;;;;;5033935;28;20021;-69
2023/01/15 00:10:11;;;;;;;11.50;5.53;;;;;;;;;;5065993;28;20029;-70
2023/01/15 00:12:37;;;;;;;14.98;6.15;;;;;;;;;;5033634;28;20018;-69
2023/01/15 00:15:03;;;;;;;15.20;6.53;;;;;;;;;;5065970;28;20046;-69
2023/01/15 00:17:30;;;;;;;12.13;6.22;;;;;;;;;;5033983;28;20022;-69
2023/01/15 00:19:56;;;;;;;15.13;6.90;;;;;;;;;;5034037;28;20029;-69
2023/01/15 00:22:22;;;;;;;14.10;6.93;;;;;;;;;;5033756;28;20022;-69
2023/01/15 00:27:40;;;;;;;12.70;5.55;;;;;;;;;;5033250;28;20028;-70
2023/01/15 00:30:07;;;;;;;15.10;5.40;;;;;;;;;;5033554;28;20055;-69
2023/01/15 00:32:33;;;;;;;17.00;5.20;;;;;;;;;;5033579;28;20035;-69
2023/01/15 00:35:00;;;;;;;12.38;5.82;;;;;;;;;;5033372;28;20043;-70
2023/01/15 00:37:26;;;;;;;20.42;7.50;;;;;;;;;;5033653;28;20026;-69
2023/01/15 00:39:53;;;;;;;16.75;6.97;;;;;;;;;;5033370;28;20611;-72
2023/01/15 00:42:19;;;;;;;12.60;6.38;;;;;;;;;;5033153;28;20031;-72
2023/01/15 00:44:45;;;;;;;20.13;8.75;;;;;;;;;;5033779;28;20021;-72
2023/01/15 00:47:15;;;;;;;36.58;17.25;;;;;;;;;;5033270;28;20025;-72
2023/01/15 00:49:42;;;;;;;19.55;9.65;;;;;;;;;;5033413;28;20040;-69
2023/01/15 00:52:09;;;;;;;11.82;6.47;;;;;;;;;;5032810;28;20037;-69
2023/01/15 00:54:35;;;;;;;12.55;5.70;;;;;;;;;;5032934;28;20030;-69
2023/01/15 00:57:01;;;;;;;11.45;6.40;;;;;;;;;;5032803;28;20393;-69
2023/01/15 00:59:28;;;;;;;14.80;7.22;;;;;;;;;;5031721;28;20025;-69
2023/01/15 01:01:54;;;;;;;14.05;7.03;;;;;;;;;;5031856;28;20028;-69
2023/01/15 01:04:20;;;;;;;20.58;8.57;;;;;;;;;;5032951;28;20043;-69
2023/01/15 01:06:46;;;;;;;14.68;7.72;;;;;;;;;;5032762;28;20025;-69
2023/01/15 01:09:13;;;;;;;13.77;7.18;;;;;;;;;;5032786;28;20025;-69
2023/01/15 01:11:40;;;;;;;11.82;6.70;;;;;;;;;;5032450;28;20021;-69
2023/01/15 01:14:06;;;;;;;15.50;6.32;;;;;;;;;;5032023;28;20033;-69
2023/01/15 01:16:37;;;;;;;12.55;7.03;;;;;;;;;;5032847;28;20029;-69
2023/01/15 01:19:22;;;;;;;21.60;11.30;;;;;;;;;;5032928;28;20021;-70
2023/01/15 01:21:49;;;;;;;27.50;11.85;;;;;;;;;;5064660;28;20038;-69
2023/01/15 01:24:17;;;;;;;19.02;8.70;;;;;;;;;;5032540;28;20033;-69
2023/01/15 01:26:44;;;;;;;18.80;7.80;;;;;;;;;;5032466;28;20017;-70
2023/01/15 01:29:12;;;;;;;19.27;7.18;;;;;;;;;;5032523;28;20022;-69
2023/01/15 01:31:38;;;;;;;16.23;6.75;;;;;;;;;;5032764;28;20021;-69
2023/01/15 01:34:04;;;;;;;15.80;6.65;;;;;;;;;;5032300;28;20651;-69
2023/01/15 01:36:32;;;;;;;8.45;4.43;;;;;;;;;;5032454;28;20025;-69
2023/01/15 01:38:59;;;;;;;10.00;4.57;;;;;;;;;;5032290;28;20034;-69
2023/01/15 01:41:26;;;;;;;11.25;5.20;;;;;;;;;;5031864;28;20401;-69
2023/01/15 01:43:52;;;;;;;13.40;4.50;;;;;;;;;;5032565;28;20022;-69
2023/01/15 01:46:18;;;;;;;9.02;4.68;;;;;;;;;;5032482;28;20068;-69
2023/01/15 01:48:45;;;;;;;9.85;5.13;;;;;;;;;;5032046;28;20049;-69
2023/01/15 01:51:11;;;;;;;14.23;7.35;;;;;;;;;;5032138;28;20038;-69
2023/01/15 01:53:38;;;;;;;20.25;7.45;;;;;;;;;;5031394;28;20037;-69
2023/01/15 01:56:07;;;;;;;16.00;7.70;;;;;;;;;;5032054;28;20508;-69
2023/01/15 01:58:33;;;;;;;10.63;6.28;;;;;;;;;;5032382;28;20033;-69
2023/01/15 02:01:01;;;;;;;11.27;5.70;;;;;;;;;;5032034;28;20029;-69
2023/01/15 02:03:30;;;;;;;11.30;5.90;;;;;;;;;;5032070;28;20021;-69
2023/01/15 02:05:59;;;;;;;10.57;4.65;;;;;;;;;;5031929;28;20029;-69
2023/01/15 02:08:26;;;;;;;10.27;4.43;;;;;;;;;;5031802;28;20013;-69
2023/01/15 02:10:53;;;;;;;8.18;4.40;;;;;;;;;;5032119;28;20022;-70
2023/01/15 02:13:28;;;;;;;9.93;4.43;;;;;;;;;;5031815;28;20122;-69
2023/01/15 02:16:02;;;;;;;10.38;4.75;;;;;;;;;;5031943;28;20044;-69
2023/01/15 02:18:30;;;;;;;7.55;4.20;;;;;;;;;;5031805;28;20478;-69
2023/01/15 02:21:03;;;;;;;8.32;5.15;;;;;;;;;;5064025;28;20033;-70
2023/01/15 02:23:48;;;;;;;11.23;5.88;;;;;;;;;;5031627;28;20036;-70
2023/01/15 02:26:14;;;;;;;8.95;5.55;;;;;;;;;;5034587;28;20029;-69
2023/01/15 02:28:43;;;;;;;9.93;5.60;;;;;;;;;;5035668;28;20021;-69
2023/01/15 02:31:09;;;;;;;7.35;4.43;;;;;;;;;;5035748;28;20029;-69
2023/01/15 02:33:38;;;;;;;8.52;4.63;;;;;;;;;;5035671;28;20486;-69
2023/01/15 02:36:06;;;;;;;12.40;4.72;;;;;;;;;;5035945;28;20035;-69
2023/01/15 02:38:36;;;;;;;10.43;4.82;;;;;;;;;;5035317;28;20030;-69
2023/01/15 02:41:04;;;;;;;9.20;4.35;;;;;;;;;;5035773;28;20043;-69
2023/01/15 02:43:33;;;;;;;7.78;4.55;;;;;;;;;;5067423;28;20071;-69
2023/01/15 02:45:59;;;;;;;7.38;3.88;;;;;;;;;;5035720;28;20033;-69
2023/01/15 02:48:27;;;;;;;8.65;4.10;;;;;;;;;;5067482;28;20029;-69
2023/01/15 02:50:57;;;;;;;9.68;3.45;;;;;;;;;;5035300;28;20045;-69
2023/01/15 02:53:26;;;;;;;7.35;4.05;;;;;;;;;;5034748;28;20033;-69
2023/01/15 02:55:55;;;;;;;7.45;4.22;;;;;;;;;;5035442;28;20413;-69
2023/01/15 02:58:25;;;;;;;6.30;3.75;;;;;;;;;;5035369;28;20018;-69
2023/01/15 03:00:54;;;;;;;10.40;3.95;;;;;;;;;;5035249;28;20029;-69
2023/01/15 03:03:38;;;;;;;6.75;3.50;;;;;;;;;;5035510;28;20031;-69
2023/01/15 03:06:11;;;;;;;6.03;3.42;;;;;;;;;;5034737;28;20026;-69
2023/01/15 03:08:37;;;;;;;6.43;3.08;;;;;;;;;;5035263;28;20021;-69
2023/01/15 03:11:13;;;;;;;6.10;3.20;;;;;;;;;;5035406;28;20033;-69
2023/01/15 03:13:45;;;;;;;10.73;3.42;;;;;;;;;;5034935;28;20025;-69
2023/01/15 03:19:16;;;;;;;7.35;3.55;;;;;;;;;;5034884;28;20030;-68
2023/01/15 03:21:46;;;;;;;11.65;4.07;;;;;;;;;;5034508;28;20028;-69
2023/01/15 03:24:14;;;;;;;9.02;3.63;;;;;;;;;;5034930;28;20026;-69
2023/01/15 03:26:41;;;;;;;7.15;3.35;;;;;;;;;;5034966;28;20047;-69
2023/01/15 03:29:08;;;;;;;6.25;3.10;;;;;;;;;;5034664;28;20029;-70
2023/01/15 03:31:35;;;;;;;5.25;3.03;;;;;;;;;;5034649;28;20036;-69
2023/01/15 03:34:02;;;;;;;8.20;3.97;;;;;;;;;;5034548;28;20427;-69
2023/01/15 03:36:28;;;;;;;11.68;4.68;;;;;;;;;;5033856;28;20031;-69
2023/01/15 03:38:54;;;;;;;8.00;3.42;;;;;;;;;;5033362;28;20375;-69
2023/01/15 03:41:30;;;;;;;7.72;3.30;;;;;;;;;;5034772;28;20022;-69
2023/01/15 03:44:14;;;;;;;6.20;2.67;;;;;;;;;;5034557;28;20021;-71
2023/01/15 03:46:47;;;;;;;5.93;2.83;;;;;;;;;;5034408;28;20031;-69
2023/01/15 03:49:21;;;;;;;9.52;2.95;;;;;;;;;;5034512;28;20036;-69
2023/01/15 03:52:02;;;;;;;5.97;2.45;;;;;;;;;;5033684;28;20041;-69
2023/01/15 03:54:28;;;;;;;;;;;;;;;;;;5034733;28;20098;-69
2023/01/15 03:56:58;;;;;;;3.75;2.67;;;;;;;;;;5034186;28;19911;-69
2023/01/15 03:59:31;;;;;;;5.33;2.80;;;;;;;;;;5034102;28;20364;-69
2023/01/15 04:01:58;;;;;;;6.95;2.78;;;;;;;;;;5034152;28;20274;-69
2023/01/15 04:04:25;;;;;;;6.40;2.92;;;;;;;;;;5033713;28;20037;-69
2023/01/15 04:06:52;;;;;;;7.10;2.97;;;;;;;;;;5033943;28;20493;-69
2023/01/15 04:09:19;;;;;;;5.43;2.10;;;;;;;;;;5033931;28;20482;-69
2023/01/15 04:11:46;;;;;;;6.85;2.95;;;;;;;;;;5033901;28;20026;-69
2023/01/15 04:14:13;;;;;;;5.55;2.70;;;;;;;;;;5033791;28;20051;-69
2023/01/15 04:16:39;;;;;;;4.85;2.63;;;;;;;;;;5033926;28;20474;-69
2023/01/15 04:19:06;;;;;;;4.10;2.40;;;;;;;;;;5033498;28;20027;-69
2023/01/15 04:21:32;;;;;;;3.20;2.45;;;;;;;;;;5033843;28;20226;-69
2023/01/15 04:23:58;;;;;;;5.97;2.83;;;;;;;;;;5033856;28;20040;-69
2023/01/15 04:26:25;;;;;;;4.82;2.55;;;;;;;;;;5033746;28;20404;-69
2023/01/15 04:28:51;;;;;;;3.60;2.63;;;;;;;;;;5033707;28;20025;-69
2023/01/15 04:31:17;;;;;;;5.85;2.60;;;;;;;;;;5033532;28;20020;-69
2023/01/15 04:33:44;;;;;;;7.82;2.70;;;;;;;;;;5033180;28;20029;-69
2023/01/15 04:36:10;;;;;;;6.13;2.38;;;;;;;;;;5033772;28;20029;-69
2023/01/15 04:38:39;;;;;;;5.85;2.30;;;;;;;;;;5033488;28;20035;-69
2023/01/15 04:44:06;;;;;;;3.95;2.13;;;;;;;;;;5033381;28;20025;-72
2023/01/15 04:46:37;;;;;;;4.85;2.38;;;;;;;;;;5033609;28;20083;-72
2023/01/15 04:49:04;;;;;;;4.05;2.63;;;;;;;;;;5032965;28;20401;-71
2023/01/15 04:51:30;;;;;;;4.63;2.35;;;;;;;;;;5032903;28;20052;-72
2023/01/15 04:53:57;;;;;;;5.15;2.92;;;;;;;;;;5033218;28;20044;-72
2023/01/15 04:56:23;;;;;;;5.05;2.80;;;;;;;;;;5033095;28;20510;-71
2023/01/15 04:58:50;;;;;;;5.35;2.50;;;;;;;;;;5033070;28;20025;-72
2023/01/15 05:01:18;;;;;;;2.97;2.22;;;;;;;;;;5065220;28;20485;-72
2023/01/15 05:03:44;;;;;;;5.00;2.25;;;;;;;;;;5032687;28;20398;-72
2023/01/15 05:06:11;;;;;;;5.88;2.25;;;;;;;;;;5032859;28;20484;-71
2023/01/15 05:08:37;;;;;;;3.85;1.95;;;;;;;;;;5032846;28;20018;-72
2023/01/15 05:11:05;;;;;;;4.25;2.30;;;;;;;;;;5032915;28;20026;-71
2023/01/15 05:13:32;;;;;;;3.92;2.53;;;;;;;;;;5033042;28;20040;-72
2023/01/15 05:16:10;;;;;;;3.55;2.08;;;;;;;;;;5033382;28;20373;-71
2023/01/15 05:18:37;;;;;;;4.22;2.20;;;;;;;;;;5032590;28;20021;-71
2023/01/15 05:21:03;;;;;;;15.07;8.25;;;;;;;;;;5032879;28;20033;-71
2023/01/15 05:23:29;;;;;;;13.30;7.05;;;;;;;;;;5032761;28;20017;-71
2023/01/15 05:25:56;;;;;;;15.50;8.40;;;;;;;;;;5032610;28;20063;-71
2023/01/15 05:28:22;;;;;;;18.63;7.85;;;;;;;;;;5032906;28;20083;-72
2023/01/15 05:30:48;;;;;;;7.90;3.72;;;;;;;;;;5032408;28;20033;-71
2023/01/15 05:33:15;;;;;;;5.13;2.95;;;;;;;;;;5032493;28;20029;-71
2023/01/15 05:35:41;;;;;;;5.85;2.28;;;;;;;;;;5032309;28;20041;-71
2023/01/15 05:38:07;;;;;;;5.78;2.72;;;;;;;;;;5032515;28;20051;-72
2023/01/15 05:40:33;;;;;;;5.03;2.50;;;;;;;;;;5032536;28;20017;-71
2023/01/15 05:43:00;;;;;;;5.85;2.10;;;;;;;;;;5032255;28;20021;-71
2023/01/15 05:45:26;;;;;;;6.00;2.30;;;;;;;;;;5032258;28;20022;-72
2023/01/15 05:47:53;;;;;;;4.18;2.63;;;;;;;;;;5032104;28;20039;-71
2023/01/15 05:50:19;;;;;;;5.53;2.65;;;;;;;;;;5064124;28;20036;-71
2023/01/15 05:52:45;;;;;;;7.45;2.90;;;;;;;;;;5032027;28;20068;-72
2023/01/15 05:55:12;;;;;;;5.05;3.22;;;;;;;;;;5032129;28;20479;-72
2023/01/15 05:57:38;;;;;;;6.00;2.90;;;;;;;;;;5032376;28;20025;-72
2023/01/15 06:00:04;;;;;;;12.75;2.97;;;;;;;;;;5031528;28;20025;-71
2023/01/15 06:02:31;;;;;;;4.38;2.70;;;;;;;;;;5032205;28;20026;-73
2023/01/15 06:04:57;;;;;;;6.97;2.97;;;;;;;;;;5032077;28;20021;-72
2023/01/15 06:07:23;;;;;;;8.77;2.78;;;;;;;;;;5032274;28;20021;-69
2023/01/15 06:09:50;;;;;;;6.95;2.60;;;;;;;;;;5031979;28;20028;-72
2023/01/15 06:12:16;;;;;;;7.90;3.63;;;;;;;;;;5032002;28;20397;-71
2023/01/15 06:14:42;;;;;;;9.05;4.95;;;;;;;;;;5031776;28;20090;-72
2023/01/15 06:17:08;;;;;;;8.45;5.05;;;;;;;;;;5032128;28;20028;-71
2023/01/15 06:19:35;;;;;;;8.85;4.50;;;;;;;;;;5031995;28;20029;-72
2023/01/15 06:22:02;;;;;;;8.25;5.30;;;;;;;;;;5032305;28;20026;-72
2023/01/15 06:24:28;;;;;;;5.88;3.30;;;;;;;;;;5032079;28;20478;-71
2023/01/15 06:26:55;;;;;;;4.78;3.20;;;;;;;;;;5032022;28;20033;-71
2023/01/15 06:29:21;;;;;;;9.57;4.60;;;;;;;;;;5031263;28;20022;-72
2023/01/15 06:31:48;;;;;;;29.98;21.60;;;;;;;;;;5031706;28;20022;-71
2023/01/15 06:34:14;;;;;;;7.32;4.70;;;;;;;;;;5031845;28;20036;-71
2023/01/15 06:36:40;;;;;;;10.98;7.50;;;;;;;;;;5031847;28;20038;-71
2023/01/15 06:39:07;;;;;;;15.40;7.00;;;;;;;;;;5031862;28;20478;-72
2023/01/15 06:47:19;;;;;;;9.38;6.10;;;;;;;;;;5032103;28;20028;-71
2023/01/15 06:49:46;;;;;;;11.32;6.38;;;;;;;;;;5031755;28;20042;-72
2023/01/15 06:52:13;;;;;;;9.45;6.05;;;;;;;;;;5031344;28;20436;-72
2023/01/15 06:54:39;;;;;;;6.90;4.50;;;;;;;;;;5030290;28;20042;-71
2023/01/15 06:57:05;;;;;;;8.55;3.85;;;;;;;;;;5031582;28;20394;-71
2023/01/15 06:59:31;;;;;;;9.27;4.05;;;;;;;;;;5031119;28;20055;-72
2023/01/15 07:01:58;;;;;;;5.07;3.47;;;;;;;;;;5031508;28;20397;-71
2023/01/15 07:04:24;;;;;;;4.85;2.80;;;;;;;;;;5031439;28;20022;-72
2023/01/15 07:06:51;;;;;;;9.18;3.80;;;;;;;;;;5031606;28;20025;-72
2023/01/15 07:09:17;;;;;;;11.63;4.90;;;;;;;;;;5031462;28;20036;-72
2023/01/15 07:11:49;;;;;;;7.22;4.53;;;;;;;;;;5032180;28;20025;-72
2023/01/15 07:14:19;;;;;;;8.10;5.32;;;;;;;;;;5034784;28;20037;-71
2023/01/15 07:16:46;;;;;;;11.15;3.78;;;;;;;;;;5033719;28;20021;-72
2023/01/15 07:19:12;;;;;;;5.15;3.22;;;;;;;;;;5035133;28;20039;-72
2023/01/15 07:21:39;;;;;;;5.82;2.60;;;;;;;;;;5034809;28;20025;-71
2023/01/15 07:24:06;;;;;;;16.25;5.38;;;;;;;;;;5034877;28;20032;-71
2023/01/15 07:26:32;;;;;;;30.42;9.18;;;;;;;;;;5034795;28;20033;-69
2023/01/15 07:28:58;;;;;;;15.68;6.65;;;;;;;;;;5034388;28;20051;-68
2023/01/15 07:31:25;;;;;;;19.65;8.20;;;;;;;;;;5034712;28;20025;-69
2023/01/15 07:33:51;;;;;;;15.20;6.78;;;;;;;;;;5034724;28;20428;-69
2023/01/15 07:36:17;;;;;;;16.95;8.57;;;;;;;;;;5034930;28;20037;-72
2023/01/15 07:38:44;;;;;;;15.20;7.22;;;;;;;;;;5034561;28;20386;-71
2023/01/15 07:52:10;;;;;;;16.90;8.60;;;;;;;;;;5034062;28;20045;-72
2023/01/15 07:54:36;;;;;;;21.33;9.45;;;;;;;;;;5034320;28;20486;-72
2023/01/15 07:57:02;;;;;;;22.55;11.52;;;;;;;;;;5033825;28;20033;-71
2023/01/15 07:59:29;;;;;;;18.02;9.48;;;;;;;;;;5034309;28;20025;-71
2023/01/15 08:01:55;;;;;;;20.67;8.38;;;;;;;;;;5034407;28;20030;-71
2023/01/15 08:04:21;;;;;;;13.20;7.53;;;;;;;;;;5034153;28;20021;-72
2023/01/15 08:06:48;;;;;;;13.77;6.93;;;;;;;;;;5034279;28;20033;-71
2023/01/15 08:09:14;;;;;;;17.50;7.00;;;;;;;;;;5034291;28;20014;-71
2023/01/15 08:17:10;;;;;;;11.27;6.35;;;;;;;;;;5033988;28;20036;-72
2023/01/15 08:19:37;;;;;;;14.65;6.20;;;;;;;;;;5033978;28;20022;-71
2023/01/15 08:22:03;;;;;;;12.25;5.47;;;;;;;;;;5033788;28;20393;-72
2023/01/15 08:24:29;;;;;;;9.05;5.25;;;;;;;;;;5033736;28;20091;-72
2023/01/15 08:26:56;;;;;;;8.90;4.97;;;;;;;;;;5033439;28;20440;-70
2023/01/15 08:29:22;;;;;;;10.43;5.93;;;;;;;;;;5033854;28;20025;-69
2023/01/15 08:31:49;;;;;;;22.85;14.35;;;;;;;;;;5033715;28;20028;-69
2023/01/15 08:34:15;;;;;;;15.98;7.95;;;;;;;;;;5033449;28;20037;-69
2023/01/15 08:36:41;;;;;;;13.57;8.00;;;;;;;;;;5033746;28;20035;-71
2023/01/15 08:39:07;;;;;;;19.23;10.38;;;;;;;;;;5065339;28;20071;-70
2023/01/15 08:41:34;;;;;;;19.27;10.00;;;;;;;;;;5033029;28;20512;-70
2023/01/15 08:44:00;;;;;;;17.98;9.65;;;;;;;;;;5032469;28;20035;-71
2023/01/15 08:46:26;;;;;;;17.08;9.75;;;;;;;;;;5033334;28;20397;-70
2023/01/15 08:48:53;;;;;;;18.45;9.05;;;;;;;;;;5033500;28;20033;-69
2023/01/15 08:51:19;;;;;;;15.95;9.63;;;;;;;;;;5033165;28;20053;-69
2023/01/15 08:53:45;;;;;;;24.42;12.68;;;;;;;;;;5013284;28;20034;-70
2023/01/15 08:56:13;;;;;;;21.23;11.93;;;;;;;;;;5013229;28;20029;-70
2023/01/15 08:58:40;;;;;;;23.27;11.73;;;;;;;;;;5045475;28;20026;-69
2023/01/15 09:01:07;;;;;;;19.38;11.68;;;;;;;;;;5013473;28;20479;-69
2023/01/15 09:03:33;;;;;;;24.67;12.95;;;;;;;;;;5013259;28;20024;-70
2023/01/15 09:06:00;;;;;;;30.50;16.08;;;;;;;;;;5013558;28;20025;-69
2023/01/15 09:08:27;;;;;;;34.80;15.55;;;;;;;;;;5016182;28;20031;-69
2023/01/15 09:11:00;;;;;;;20.30;10.02;;;;;;;;;;5032551;28;20452;-70
2023/01/15 09:13:27;;;;;;;43.65;16.98;;;;;;;;;;5031762;28;20584;-70
2023/01/15 09:15:54;;;;;;;75.45;28.83;;;;;;;;;;5064834;28;20038;-70
2023/01/15 09:18:20;;;;;;;22.15;9.45;;;;;;;;;;5032574;28;20009;-70
2023/01/15 09:20:47;;;;;;;46.15;18.13;;;;;;;;;;5032684;28;20490;-70
2023/01/15 09:23:14;;;;;;;21.48;10.32;;;;;;;;;;5032404;28;20035;-70
2023/01/15 09:25:41;;;;;;;48.75;18.20;;;;;;;;;;5031489;28;20033;-69
2023/01/15 09:28:08;;;;;;;22.30;10.98;;;;;;;;;;5032906;28;20014;-70
2023/01/15 09:30:34;;;;;;;16.38;8.57;;;;;;;;;;5032811;28;20028;-69
2023/01/15 09:33:00;;;;;;;9.52;6.00;;;;;;;;;;5032490;28;20021;-70
2023/01/15 09:35:26;;;;;;;10.15;6.22;;;;;;;;;;5031748;28;20029;-70
2023/01/15 09:37:53;;;;;;;10.68;5.80;;;;;;;;;;5032292;28;20037;-70
2023/01/15 09:40:37;;;;;;;10.38;5.90;;;;;;;;;;5032424;28;20029;-70
2023/01/15 09:43:14;;;;;;;11.63;5.82;;;;;;;;;;5032263;28;20033;-70
2023/01/15 09:45:45;;;;;;;9.45;6.00;;;;;;;;;;5032408;28;20372;-69
2023/01/15 09:48:11;;;;;;;12.02;5.57;;;;;;;;;;5032227;28;20445;-70
2023/01/15 09:50:38;;;;;;;10.93;7.03;;;;;;;;;;5032132;28;20025;-70
2023/01/15 09:53:12;;;;;;;11.38;6.90;;;;;;;;;;5031845;28;20057;-70
2023/01/15 09:55:49;;;;;;;13.07;8.27;;;;;;;;;;5032143;28;20039;-69
2023/01/15 09:58:18;;;;;;;13.45;7.70;;;;;;;;;;5032183;28;20043;-70
2023/01/15 10:00:46;;;;;;;16.10;8.70;;;;;;;;;;5032000;28;20486;-70
2023/01/15 10:03:24;;;;;;;14.15;8.93;;;;;;;;;;5032462;28;20036;-70
2023/01/15 10:05:55;;;;;;;13.70;8.90;;;;;;;;;;5032119;28;20043;-70
2023/01/15 10:08:24;;;;;;;14.48;9.20;;;;;;;;;;5031524;28;20018;-70
2023/01/15 10:10:55;;;;;;;27.23;15.48;;;;;;;;;;5031955;28;20036;-69
2023/01/15 10:13:40;;;;;;;18.00;9.68;;;;;;;;;;5032023;28;20032;-70
2023/01/15 10:16:06;;;;;;;15.65;9.80;;;;;;;;;;5031880;28;20045;-70
2023/01/15 10:18:33;;;;;;;14.20;8.73;;;;;;;;;;5032087;28;20025;-70
2023/01/15 10:21:01;;;;;;;11.63;8.35;;;;;;;;;;5032069;28;20029;-69
2023/01/15 10:23:31;;;;;;;47.88;18.55;;;;;;;;;;5031958;28;20021;-70
2023/01/15 10:26:00;;;;;;;38.75;15.52;;;;;;;;;;5064127;28;20026;-70
2023/01/15 10:28:44;;;;;;;37.60;16.25;;;;;;;;;;5063866;28;20052;-69
2023/01/15 10:31:18;;;;;;;4.45;2.47;;;;;;;;;;5031818;28;20025;-70
2023/01/15 10:33:52;;;;;;;1.60;0.80;;;;;;;;;;5032159;28;20033;-70
2023/01/15 10:36:30;;;;;;;0.60;0.60;;;;;;;;;;5031423;28;20544;-69
2023/01/15 10:38:56;;;;;;;0.90;0.77;;;;;;;;;;5031716;28;20393;-69
2023/01/15 10:41:32;;;;;;;0.65;0.57;;;;;;;;;;5031919;28;20059;-69
2023/01/15 10:43:59;;;;;;;1.30;1.20;;;;;;;;;;5031693;28;20029;-70
2023/01/15 10:46:36;;;;;;;0.60;0.60;;;;;;;;;;5033322;28;20017;-70
2023/01/15 10:49:12;;;;;;;0.77;0.65;;;;;;;;;;5035482;28;20028;-70
2023/01/15 10:51:43;;;;;;;0.28;0.28;;;;;;;;;;5066960;28;20067;-70
2023/01/15 10:54:26;;;;;;;1.35;0.73;;;;;;;;;;5067302;28;20038;-70
2023/01/15 10:57:08;;;;;;;1.60;1.08;;;;;;;;;;5035415;28;20375;-70
2023/01/15 10:59:38;;;;;;;0.63;0.55;;;;;;;;;;5035398;28;20397;-69
2023/01/15 11:02:15;;;;;;;0.40;0.40;;;;;;;;;;5035323;28;20090;-69
2023/01/15 11:04:41;;;;;;;1.00;0.80;;;;;;;;;;5034865;28;20026;-70
2023/01/15 11:07:09;;;;;;;0.85;0.52;;;;;;;;;;5035170;28;20520;-70
2023/01/15 11:09:36;;;;;;;0.73;0.50;;;;;;;;;;5034977;28;20389;-70
2023/01/15 11:20:19;;;;;;;0.73;0.40;;;;;;;;;;5034557;28;20479;-69
2023/01/15 11:22:46;;;;;;;0.70;0.50;;;;;;;;;;5034916;28;20094;-69
2023/01/15 11:25:13;;;;;;;23.33;14.45;;;;;;;;;;5034942;28;20017;-70
2023/01/15 11:27:40;;;;;;;15.45;10.88;;;;;;;;;;5034828;28;20083;-70
2023/01/15 11:30:07;;;;;;;3.20;1.38;;;;;;;;;;5034668;28;20490;-70
2023/01/15 11:32:35;;;;;;;2.05;0.80;;;;;;;;;;5035000;28;20035;-70
2023/01/15 11:35:14;;;;;;;2.33;0.90;;;;;;;;;;5034310;28;20029;-70
2023/01/15 11:37:40;;;;;;;2.25;1.10;;;;;;;;;;5034551;28;20022;-70
2023/01/15 11:40:16;;;;;;;2.92;1.50;;;;;;;;;;5034648;28;20032;-70
2023/01/15 11:51:11;;;;;;;1.40;1.00;;;;;;;;;;5034505;28;20042;-70
2023/01/15 11:53:39;;;;;;;1.95;0.50;;;;;;;;;;5034220;28;20025;-70
2023/01/15 11:56:08;;;;;;;1.00;0.60;;;;;;;;;;5034110;28;20112;-70
2023/01/15 11:58:46;;;;;;;2.03;1.10;;;;;;;;;;5033773;28;20018;-70
2023/01/15 12:01:25;;;;;;;0.80;0.80;;;;;;;;;;5034170;28;20036;-70
2023/01/15 12:03:52;;;;;;;0.50;0.40;;;;;;;;;;5034076;28;20106;-70
2023/01/15 12:06:19;;;;;;;3.05;1.73;;;;;;;;;;5034230;28;20025;-70
2023/01/15 12:09:05;;;;;;;2.65;1.65;;;;;;;;;;5034040;28;20021;-71
2023/01/15 12:11:38;;;;;;;2.58;1.40;;;;;;;;;;5034175;28;20022;-70
2023/01/15 12:14:23;;;;;;;4.55;1.30;;;;;;;;;;5034319;28;20024;-71
2023/01/15 12:16:52;;;;;;;2.03;1.15;;;;;;;;;;5033832;28;20025;-71
2023/01/15 12:19:34;;;;;;;0.80;0.57;;;;;;;;;;5033567;28;20029;-70
2023/01/15 12:22:09;;;;;;;1.15;0.88;;;;;;;;;;5034420;28;20025;-70
2023/01/15 12:24:50;;;;;;;3.50;0.50;;;;;;;;;;5033963;28;20075;-70
2023/01/15 12:27:32;;;;;;;0.68;0.45;;;;;;;;;;5033853;28;20022;-70
2023/01/15 12:30:01;;;;;;;0.25;0.22;;;;;;;;;;5033590;28;20029;-70
2023/01/15 12:32:30;;;;;;;0.82;0.32;;;;;;;;;;5065421;28;20028;-70
2023/01/15 12:35:07;;;;;;;1.95;0.88;;;;;;;;;;5033337;28;20493;-70
2023/01/15 12:37:40;;;;;;;1.27;0.80;;;;;;;;;;5033472;28;20036;-70
2023/01/15 12:40:06;;;;;;;1.95;1.13;;;;;;;;;;5033766;28;20029;-70
2023/01/15 12:45:25;;;;;;;2.08;1.50;;;;;;;;;;5033646;28;20022;-70
2023/01/15 12:48:01;;;;;;;8.32;3.88;;;;;;;;;;5033044;28;20039;-70
2023/01/15 12:50:45;;;;;;;5.97;3.80;;;;;;;;;;5033542;28;20025;-70
2023/01/15 12:53:11;;;;;;;2.95;1.80;;;;;;;;;;5033269;28;20030;-70
2023/01/15 12:55:44;;;;;;;1.77;1.25;;;;;;;;;;5032992;28;20053;-70
2023/01/15 12:58:15;;;;;;;7.22;4.05;;;;;;;;;;5033064;28;20017;-70
2023/01/15 13:00:42;;;;;;;1.10;0.80;;;;;;;;;;5033074;28;20026;-70
2023/01/15 13:03:24;;;;;;;1.67;0.80;;;;;;;;;;5033167;28;20379;-70
2023/01/15 13:05:52;;;;;;;0.57;0.45;;;;;;;;;;5033233;28;20026;-70
2023/01/15 13:08:40;;;;;;;3.88;1.58;;;;;;;;;;5031594;28;20033;-70
2023/01/15 13:11:09;;;;;;;1.85;1.50;;;;;;;;;;5032515;28;20067;-70
2023/01/15 13:13:38;;;;;;;1.55;1.05;;;;;;;;;;5032721;28;20051;-70
2023/01/15 13:16:12;;;;;;;1.38;0.70;;;;;;;;;;5031377;28;20038;-70
2023/01/15 13:19:14;;;;;;;4.85;2.90;;;;;;;;;;5032947;28;20026;-70
2023/01/15 13:21:41;;;;;;;1.25;0.90;;;;;;;;;;5030276;28;20469;-70
2023/01/15 13:24:13;;;;;;;0.52;0.50;;;;;;;;;;5030816;28;20036;-70
2023/01/15 13:26:40;;;;;;;1.20;0.75;;;;;;;;;;5030368;28;20036;-70
2023/01/15 13:29:25;;;;;;;0.60;0.60;;;;;;;;;;5030764;28;20049;-70
2023/01/15 13:31:52;;;;;;;0.65;0.60;;;;;;;;;;5030059;28;20028;-70
2023/01/15 13:34:38;;;;;;;0.50;0.50;;;;;;;;;;5030335;28;20083;-70
2023/01/15 13:37:15;;;;;;;1.00;0.73;;;;;;;;;;5030044;28;20061;-70
2023/01/15 13:39:43;;;;;;;1.00;0.60;;;;;;;;;;5030463;28;20026;-70
2023/01/15 13:42:31;;;;;;;1.17;0.50;;;;;;;;;;5030142;28;20056;-70
2023/01/15 13:45:03;;;;;;;1.30;0.60;;;;;;;;;;5029918;28;20030;-70
2023/01/15 13:47:34;;;;;;;1.52;0.70;;;;;;;;;;5029882;28;20560;-70
2023/01/15 13:50:05;;;;;;;6.03;1.17;;;;;;;;;;5030319;28;20546;-70
2023/01/15 13:52:33;;;;;;;4.30;1.30;;;;;;;;;;5020291;28;20492;-70
2023/01/15 13:55:06;;;;;;;2.38;1.00;;;;;;;;;;5010757;28;20568;-70
2023/01/15 13:57:34;;;;;;;2.08;0.88;;;;;;;;;;5012635;28;20052;-70
2023/01/15 14:00:03;;;;;;;1.83;1.02;;;;;;;;;;5012316;28;20029;-70
2023/01/15 14:02:30;;;;;;;2.85;1.50;;;;;;;;;;5012437;28;20022;-70
2023/01/15 14:04:57;;;;;;;3.28;1.38;;;;;;;;;;5012571;28;20029;-70
2023/01/15 14:07:31;;;;;;;1.88;0.75;;;;;;;;;;5011006;28;20037;-71
2023/01/15 14:10:23;;;;;;;3.40;0.93;;;;;;;;;;5027816;28;20021;-70
2023/01/15 14:12:49;;;;;;;3.97;0.95;;;;;;;;;;5032256;28;20028;-70
2023/01/15 14:15:21;;;;;;;5.20;0.98;;;;;;;;;;5031384;28;20041;-70
2023/01/15 14:18:02;;;;;;;6.47;1.50;;;;;;;;;;5032191;28;20014;-70
2023/01/15 14:20:35;;;;;;;3.25;0.77;;;;;;;;;;5032037;28;20028;-70
2023/01/15 14:23:20;;;;;;;3.75;1.17;;;;;;;;;;5035984;28;20513;-69
2023/01/15 14:25:52;;;;;;;4.55;1.42;;;;;;;;;;5036013;28;20033;-69
2023/01/15 14:28:24;;;;;;;5.75;1.10;;;;;;;;;;5035622;28;20044;-70
2023/01/15 14:31:06;;;;;;;4.57;1.45;;;;;;;;;;5035858;28;20022;-70
2023/01/15 14:33:47;;;;;;;3.90;1.00;;;;;;;;;;5036179;28;20029;-70
2023/01/15 14:36:19;;;;;;;2.53;0.90;;;;;;;;;;5035855;28;20026;-70
2023/01/15 14:38:50;;;;;;;3.50;1.15;;;;;;;;;;5035918;28;20018;-70
2023/01/15 14:41:25;;;;;;;7.82;1.33;;;;;;;;;;5035872;28;20022;-70
2023/01/15 14:43:52;;;;;;;3.38;1.00;;;;;;;;;;5035676;28;20478;-70
2023/01/15 14:46:36;;;;;;;5.38;1.42;;;;;;;;;;5036208;28;20038;-70
2023/01/15 14:49:03;;;;;;;5.43;1.20;;;;;;;;;;5035485;28;20021;-70
2023/01/15 14:51:36;;;;;;;2.92;1.05;;;;;;;;;;5035164;28;20026;-70
2023/01/15 14:54:05;;;;;;;5.50;1.25;;;;;;;;;;5035760;28;20029;-70
2023/01/15 14:56:36;;;;;;;5.05;1.50;;;;;;;;;;5033964;28;20045;-70
2023/01/15 14:59:09;;;;;;;4.55;1.20;;;;;;;;;;5035694;28;20082;-70
2023/01/15 15:01:37;;;;;;;5.35;1.17;;;;;;;;;;5035495;28;20021;-70
2023/01/15 15:04:09;;;;;;;5.05;1.20;;;;;;;;;;5035335;28;20030;-70
2023/01/15 15:06:40;;;;;;;9.73;1.25;;;;;;;;;;5035295;28;20091;-69
2023/01/15 15:09:12;;;;;;;5.03;1.27;;;;;;;;;;5035034;28;20756;-70
2023/01/15 15:14:28;;;;;;;6.50;1.30;;;;;;;;;;5035055;28;20572;-70
2023/01/15 15:16:56;;;;;;;4.22;1.80;;;;;;;;;;5035104;28;20033;-70
2023/01/15 15:19:26;;;;;;;8.52;2.13;;;;;;;;;;5035350;28;20033;-70
2023/01/15 15:21:54;;;;;;;4.57;1.88;;;;;;;;;;5035144;28;20466;-70
2023/01/15 15:24:23;;;;;;;6.30;2.20;;;;;;;;;;5034921;28;20051;-70
2023/01/15 15:26:50;;;;;;;9.40;1.80;;;;;;;;;;5034490;28;20140;-70
2023/01/15 15:29:17;;;;;;;5.35;1.42;;;;;;;;;;5034782;28;20381;-70
2023/01/15 15:31:58;;;;;;;5.63;1.17;;;;;;;;;;5034716;28;20025;-70
2023/01/15 15:34:25;;;;;;;;;;;;;;;;;;5034388;28;20021;-69
2023/01/15 15:36:51;;;;;;;3.72;1.15;;;;;;;;;;5034720;28;19905;-70
2023/01/15 15:39:18;;;;;;;5.35;1.33;;;;;;;;;;5034749;28;20429;-70
2023/01/15 15:50:18;;;;;;;6.93;2.80;;;;;;;;;;5034504;28;20083;-69
2023/01/15 15:52:45;;;;;;;6.63;2.05;;;;;;;;;;5034184;28;20072;-69